createdAt,value
2018-02-08T00:00:28.079Z,66.87
2018-02-08T00:02:55.536Z,62.57
2018-02-08T00:05:23.002Z,62.93
2018-02-08T00:07:50.485Z,62.87
2018-02-08T00:10:17.986Z,69.23
2018-02-08T00:12:45.603Z,65.93
2018-02-08T00:15:13.060Z,65.33
2018-02-08T00:17:40.565Z,70.67
2018-02-08T00:20:08.045Z,61.30
2018-02-08T00:22:45.278Z,71.27
2018-02-08T00:25:12.762Z,67.90
2018-02-08T00:27:40.221Z,72.07
2018-02-08T00:30:07.714Z,69.90
2018-02-08T00:32:35.178Z,70.17
2018-02-08T00:35:02.719Z,68.83
2018-02-08T00:37:30.202Z,69.23
2018-02-08T00:39:57.701Z,68.77
2018-02-08T00:42:25.174Z,69.17
2018-02-08T00:44:52.659Z,68.03
2018-02-08T00:47:20.138Z,72.67
2018-02-08T00:49:47.635Z,72.10
2018-02-08T00:52:15.946Z,73.13
2018-02-08T00:54:43.478Z,70.33
2018-02-08T00:57:10.967Z,70.60
2018-02-08T00:59:38.430Z,62.70
2018-02-08T01:02:05.891Z,71.60
2018-02-08T01:04:33.387Z,73.23
2018-02-08T01:07:01.665Z,72.87
2018-02-08T01:09:29.904Z,79.53
2018-02-08T01:11:57.373Z,70.90
2018-02-08T01:14:24.873Z,73.43
2018-02-08T01:16:52.351Z,69.97
2018-02-08T01:19:19.848Z,71.30
2018-02-08T01:21:47.326Z,73.27
2018-02-08T01:24:14.811Z,73.03
2018-02-08T01:26:42.327Z,73.03
2018-02-08T01:29:09.798Z,73.73
2018-02-08T01:31:38.040Z,68.33
2018-02-08T01:34:05.528Z,74.07
2018-02-08T01:36:33.010Z,69.10
2018-02-08T01:39:00.507Z,76.50
2018-02-08T01:41:27.989Z,67.77
2018-02-08T01:43:55.470Z,74.93
2018-02-08T01:46:22.929Z,64.53
2018-02-08T01:48:50.513Z,73.67
2018-02-08T01:51:18.014Z,69.33
2018-02-08T01:53:45.481Z,78.73
2018-02-08T01:56:12.976Z,68.27
2018-02-08T01:58:40.444Z,68.43
2018-02-08T02:01:07.935Z,75.13
2018-02-08T02:03:35.399Z,69.70
2018-02-08T02:06:02.891Z,78.07
2018-02-08T02:08:30.354Z,71.37
2018-02-08T02:10:57.855Z,64.90
2018-02-08T02:13:25.311Z,72.90
2018-02-08T02:15:52.789Z,65.30
2018-02-08T02:18:20.301Z,62.53
2018-02-08T02:20:47.765Z,72.17
2018-02-08T02:23:15.242Z,71.10
2018-02-08T02:25:42.717Z,65.20
2018-02-08T02:28:10.212Z,64.47
2018-02-08T02:30:37.685Z,58.67
2018-02-08T02:33:05.177Z,66.77
2018-02-08T02:35:32.630Z,72.50
2018-02-08T02:38:00.134Z,64.83
2018-02-08T02:40:28.358Z,65.80
2018-02-08T02:42:55.821Z,65.47
2018-02-08T02:45:23.329Z,65.43
2018-02-08T02:47:50.808Z,64.90
2018-02-08T02:50:18.333Z,60.63
2018-02-08T02:52:46.555Z,65.50
2018-02-08T02:55:14.033Z,65.97
2018-02-08T02:57:41.512Z,61.67
2018-02-08T03:00:09.770Z,65.70
2018-02-08T03:02:37.242Z,65.80
2018-02-08T03:05:05.489Z,64.77
2018-02-08T03:07:32.959Z,62.33
2018-02-08T03:10:00.475Z,64.57
2018-02-08T03:12:27.974Z,67.83
2018-02-08T03:14:55.430Z,63.77
2018-02-08T03:17:22.938Z,66.87
2018-02-08T03:19:50.410Z,68.30
2018-02-08T03:22:17.903Z,65.37
2018-02-08T03:24:45.362Z,73.47
2018-02-08T03:27:12.851Z,69.37
2018-02-08T03:29:40.310Z,69.67
2018-02-08T03:32:07.789Z,62.00
2018-02-08T03:34:35.274Z,65.53
2018-02-08T03:37:02.753Z,71.43
2018-02-08T03:39:30.240Z,67.00
2018-02-08T03:41:58.490Z,66.50
2018-02-08T03:44:26.019Z,65.20
2018-02-08T03:46:53.509Z,70.87
2018-02-08T03:49:21.004Z,66.93
2018-02-08T03:51:48.470Z,70.60
2018-02-08T03:54:15.978Z,66.77
2018-02-08T03:56:43.442Z,65.40
2018-02-08T03:59:10.910Z,67.53
2018-02-08T04:01:38.417Z,76.47
2018-02-08T04:04:05.885Z,72.70
2018-02-08T04:06:33.386Z,64.53
2018-02-08T04:09:00.874Z,67.10
2018-02-08T04:11:28.358Z,65.43
2018-02-08T04:13:55.850Z,68.57
2018-02-08T04:16:23.346Z,68.60
2018-02-08T04:18:50.806Z,66.80
2018-02-08T04:21:18.303Z,63.60
2018-02-08T04:23:45.782Z,66.23
2018-02-08T04:26:14.038Z,63.40
2018-02-08T04:28:41.510Z,70.13
2018-02-08T04:31:09.835Z,70.70
2018-02-08T04:33:37.318Z,68.30
2018-02-08T04:36:04.809Z,64.97
2018-02-08T04:38:44.290Z,69.87
2018-02-08T04:41:23.522Z,67.87
2018-02-08T04:44:17.560Z,69.13
2018-02-08T05:00:29.082Z,75.20
2018-02-08T05:02:59.041Z,78.23
2018-02-08T05:05:26.522Z,72.37
2018-02-08T05:07:53.975Z,72.23
2018-02-08T05:10:21.485Z,72.67
2018-02-08T05:12:48.941Z,70.43
2018-02-08T05:15:16.410Z,68.83
2018-02-08T05:17:43.887Z,67.70
2018-02-08T05:20:12.141Z,68.17
2018-02-08T05:22:39.618Z,63.40
2018-02-08T05:25:07.878Z,65.93
2018-02-08T05:27:35.355Z,68.80
2018-02-08T05:30:03.606Z,67.50
2018-02-08T05:32:31.067Z,71.20
2018-02-08T05:34:58.546Z,68.97
2018-02-08T05:37:26.861Z,63.00
2018-02-08T05:39:54.333Z,62.57
2018-02-08T05:42:21.821Z,61.93
2018-02-08T05:44:49.302Z,65.07
2018-02-08T05:47:16.761Z,59.37
2018-02-08T05:49:44.266Z,67.10
2018-02-08T05:52:12.491Z,58.87
2018-02-08T05:54:40.742Z,61.67
2018-02-08T05:57:08.223Z,63.97
2018-02-08T05:59:35.686Z,65.17
2018-02-08T06:02:03.170Z,60.87
2018-02-08T06:04:30.625Z,58.63
2018-02-08T06:06:58.138Z,65.57
2018-02-08T06:09:26.362Z,62.00
2018-02-08T06:11:53.819Z,67.37
2018-02-08T06:14:21.317Z,60.87
2018-02-08T06:16:48.777Z,59.83
2018-02-08T06:19:17.041Z,64.80
2018-02-08T06:21:44.514Z,55.57
2018-02-08T06:24:12.770Z,59.80
2018-02-08T06:26:40.254Z,56.37
2018-02-08T06:29:08.474Z,63.17
2018-02-08T06:31:36.088Z,60.67
2018-02-08T06:34:04.306Z,59.97
2018-02-08T06:36:31.858Z,58.23
2018-02-08T06:38:59.350Z,58.27
2018-02-08T06:41:26.810Z,58.43
2018-02-08T06:43:54.305Z,53.67
2018-02-08T06:46:21.766Z,54.30
2018-02-08T06:48:49.314Z,59.07
2018-02-08T06:51:17.561Z,63.03
2018-02-08T06:53:45.023Z,56.97
2018-02-08T06:56:12.511Z,57.67
2018-02-08T06:58:40.767Z,58.43
2018-02-08T07:01:08.250Z,62.13
2018-02-08T07:03:36.494Z,58.07
2018-02-08T07:06:03.958Z,56.00
2018-02-08T07:08:31.457Z,63.53
2018-02-08T07:10:58.958Z,64.70
2018-02-08T07:13:26.432Z,68.37
2018-02-08T07:15:53.929Z,65.77
2018-02-08T07:18:21.499Z,63.80
2018-02-08T07:20:48.954Z,66.10
2018-02-08T07:23:16.443Z,61.50
2018-02-08T07:25:43.907Z,65.33
2018-02-08T07:28:11.410Z,60.47
2018-02-08T07:30:38.871Z,55.97
2018-02-08T07:33:06.329Z,56.43
2018-02-08T07:35:33.879Z,60.57
2018-02-08T07:38:01.343Z,60.40
2018-02-08T07:40:28.801Z,61.17
2018-02-08T07:42:56.374Z,61.53
2018-02-08T07:45:23.879Z,59.60
2018-02-08T07:47:51.378Z,59.03
2018-02-08T07:50:18.868Z,58.23
2018-02-08T07:52:46.362Z,59.07
2018-02-08T07:55:13.835Z,63.00
2018-02-08T07:57:41.310Z,61.93
2018-02-08T08:00:08.789Z,61.83
2018-02-08T08:02:36.277Z,61.97
2018-02-08T08:05:03.762Z,63.73
2018-02-08T08:07:31.245Z,61.50
2018-02-08T08:09:58.698Z,66.90
2018-02-08T08:12:26.184Z,57.47
2018-02-08T08:14:54.447Z,56.37
2018-02-08T08:17:21.902Z,53.20
2018-02-08T08:19:49.395Z,59.70
2018-02-08T08:22:16.863Z,57.73
2018-02-08T08:24:44.413Z,60.10
2018-02-08T08:27:11.839Z,58.17
2018-02-08T08:29:39.295Z,62.40
2018-02-08T08:32:06.794Z,62.27
2018-02-08T08:34:35.045Z,62.43
2018-02-08T08:37:02.550Z,57.37
2018-02-08T08:39:30.006Z,63.80
2018-02-08T08:41:57.471Z,55.80
2018-02-08T08:44:24.954Z,57.57
2018-02-08T08:46:52.426Z,60.80
2018-02-08T08:49:19.886Z,50.23
2018-02-08T08:51:47.377Z,58.73
2018-02-08T08:54:14.843Z,56.67
2018-02-08T08:56:42.327Z,56.97
2018-02-08T08:59:09.838Z,60.03
2018-02-08T09:01:37.313Z,66.70
2018-02-08T09:04:05.533Z,63.67
2018-02-08T09:06:33.030Z,57.63
2018-02-08T09:09:00.505Z,73.87
2018-02-08T09:11:27.998Z,68.23
2018-02-08T09:13:55.478Z,78.13
2018-02-08T09:16:22.942Z,56.67
2018-02-08T09:18:50.449Z,61.63
2018-02-08T09:21:17.912Z,62.63
2018-02-08T09:23:45.502Z,65.10
2018-02-08T09:26:12.970Z,54.40
2018-02-08T09:28:40.434Z,54.63
2018-02-08T09:31:07.917Z,59.07
2018-02-08T09:33:36.165Z,55.20
2018-02-08T09:36:03.618Z,52.93
2018-02-08T09:38:31.121Z,46.93
2018-02-08T09:40:58.606Z,52.73
2018-02-08T09:43:26.070Z,57.07
2018-02-08T09:45:54.457Z,46.53
2018-02-08T09:48:21.947Z,43.67
2018-02-08T09:50:50.169Z,54.00
2018-02-08T09:53:17.686Z,49.20
2018-02-08T09:55:45.941Z,47.83
2018-02-08T09:58:13.430Z,46.03
2018-02-08T10:00:40.900Z,43.83
2018-02-08T10:03:08.390Z,47.67
2018-02-08T10:05:35.852Z,47.43
2018-02-08T10:08:03.344Z,44.67
2018-02-08T10:10:30.793Z,49.53
2018-02-08T10:12:58.277Z,45.27
2018-02-08T10:15:25.733Z,52.40
2018-02-08T10:17:53.236Z,44.20
2018-02-08T10:20:20.691Z,42.13
2018-02-08T10:22:49.076Z,39.93
2018-02-08T10:25:16.558Z,39.43
2018-02-08T10:27:44.790Z,43.90
2018-02-08T10:30:12.269Z,50.53
2018-02-08T10:32:39.746Z,42.80
2018-02-08T10:35:07.201Z,48.30
2018-02-08T10:37:34.685Z,40.53
2018-02-08T10:40:02.143Z,54.73
2018-02-08T10:42:29.637Z,53.70
2018-02-08T10:44:57.874Z,49.67
2018-02-08T10:47:25.390Z,39.73
2018-02-08T10:49:52.905Z,39.47
2018-02-08T10:52:20.392Z,43.77
2018-02-08T10:54:47.858Z,60.57
2018-02-08T10:57:15.310Z,33.77
2018-02-08T10:59:42.789Z,42.67
2018-02-08T11:02:10.299Z,74.63
2018-02-08T11:04:37.769Z,33.97
2018-02-08T11:07:05.232Z,39.63
2018-02-08T11:09:32.712Z,42.87
2018-02-08T11:12:00.163Z,36.10
2018-02-08T11:14:27.650Z,44.00
2018-02-08T11:16:55.870Z,55.77
2018-02-08T11:19:23.326Z,38.73
2018-02-08T11:21:51.593Z,40.03
2018-02-08T11:24:19.062Z,51.83
2018-02-08T11:26:46.542Z,43.03
2018-02-08T11:29:14.002Z,38.83
2018-02-08T11:31:41.482Z,45.83
2018-02-08T11:34:09.734Z,37.50
2018-02-08T11:36:37.190Z,38.83
2018-02-08T11:39:04.705Z,46.27
2018-02-08T11:41:32.162Z,38.57
2018-02-08T11:43:59.674Z,61.23
2018-02-08T11:46:27.897Z,45.07
2018-02-08T11:48:55.350Z,43.43
2018-02-08T11:51:22.836Z,45.00
2018-02-08T11:53:50.309Z,45.83
2018-02-08T11:56:17.779Z,45.47
2018-02-08T11:58:46.002Z,42.43
2018-02-08T12:01:13.534Z,43.33
2018-02-08T12:03:40.974Z,46.97
2018-02-08T12:06:09.233Z,50.20
2018-02-08T12:08:37.259Z,44.43
2018-02-08T12:11:04.714Z,47.30
2018-02-08T12:13:32.219Z,50.40
2018-02-08T12:15:59.689Z,63.77
2018-02-08T12:18:27.914Z,44.33
2018-02-08T12:20:55.396Z,42.53
2018-02-08T12:23:22.878Z,56.60
2018-02-08T12:25:50.350Z,52.20
2018-02-08T12:28:18.757Z,48.03
2018-02-08T12:30:46.225Z,75.73
2018-02-08T12:33:13.690Z,53.10
2018-02-08T12:35:41.174Z,56.90
2018-02-08T12:38:08.668Z,48.73
2018-02-08T12:40:36.119Z,52.77
2018-02-08T12:43:03.606Z,63.80
2018-02-08T12:45:31.086Z,47.67
2018-02-08T12:47:58.570Z,56.13
2018-02-08T12:50:26.034Z,54.47
2018-02-08T12:52:53.509Z,70.93
2018-02-08T12:55:20.958Z,55.87
2018-02-08T12:57:48.418Z,58.43
2018-02-08T13:00:15.918Z,54.00
2018-02-08T13:02:43.382Z,64.00
2018-02-08T13:05:10.861Z,59.27
2018-02-08T13:07:38.386Z,63.10
2018-02-08T13:10:05.853Z,61.73
2018-02-08T13:12:33.461Z,62.27
2018-02-08T13:15:00.915Z,67.10
2018-02-08T13:17:28.382Z,62.90
2018-02-08T13:19:55.836Z,73.83
2018-02-08T13:22:23.325Z,65.07
2018-02-08T13:24:50.799Z,68.87
2018-02-08T13:27:18.270Z,66.10
2018-02-08T13:29:45.761Z,76.93
2018-02-08T13:32:14.830Z,71.50
2018-02-08T13:34:42.286Z,66.90
2018-02-08T13:37:09.778Z,82.67
2018-02-08T13:39:54.030Z,67.70
2018-02-08T13:42:21.530Z,68.87
2018-02-08T13:44:49.034Z,67.40
2018-02-08T13:50:50.494Z,71.23
2018-02-08T13:53:33.638Z,75.27
2018-02-08T13:56:06.686Z,78.53
2018-02-08T13:58:36.451Z,87.80
2018-02-08T14:04:16.023Z,67.70
2018-02-08T14:06:43.478Z,70.33
2018-02-08T14:09:10.966Z,69.33
2018-02-08T14:11:38.422Z,70.33
2018-02-08T14:14:05.879Z,66.27
2018-02-08T14:16:33.362Z,64.23
2018-02-08T14:19:00.818Z,75.33
2018-02-08T14:21:28.293Z,70.83
2018-02-08T14:23:55.773Z,69.17
2018-02-08T14:26:23.223Z,60.63
2018-02-08T14:28:50.698Z,67.73
2018-02-08T14:31:18.180Z,64.40
2018-02-08T14:33:45.641Z,68.13
2018-02-08T14:36:13.123Z,58.63
2018-02-08T14:38:41.382Z,68.47
2018-02-08T14:41:08.843Z,63.87
2018-02-08T14:43:36.326Z,70.17
2018-02-08T14:46:04.594Z,73.20
2018-02-08T14:48:32.024Z,66.13
2018-02-08T14:51:00.397Z,73.67
2018-02-08T14:53:27.858Z,70.43
2018-02-08T14:55:55.353Z,81.17
2018-02-08T14:58:23.586Z,71.07
2018-02-08T15:00:51.042Z,72.60
2018-02-08T15:03:18.526Z,69.33
2018-02-08T15:05:46.750Z,73.37
2018-02-08T15:08:14.205Z,73.40
2018-02-08T15:10:41.709Z,76.43
2018-02-08T15:13:09.195Z,74.70
2018-02-08T15:15:36.679Z,72.33
2018-02-08T15:18:04.138Z,72.73
2018-02-08T15:20:31.646Z,77.90
2018-02-08T15:22:59.878Z,76.40
2018-02-08T15:25:28.102Z,69.50
2018-02-08T15:27:55.584Z,73.00
2018-02-08T15:30:23.059Z,77.10
2018-02-08T15:32:50.514Z,81.93
2018-02-08T15:35:17.998Z,86.13
2018-02-08T15:37:45.450Z,80.33
2018-02-08T15:40:13.706Z,81.27
2018-02-08T15:42:41.159Z,78.97
2018-02-08T15:45:08.621Z,75.83
2018-02-08T15:47:36.114Z,77.80
2018-02-08T15:50:03.594Z,87.77
2018-02-08T15:52:31.850Z,89.20
2018-02-08T15:54:59.309Z,83.20
2018-02-08T15:57:26.790Z,83.27
2018-02-08T15:59:55.017Z,87.73
2018-02-08T16:02:23.384Z,82.97
2018-02-08T16:04:50.877Z,88.07
2018-02-08T16:07:18.358Z,84.57
2018-02-08T16:09:45.821Z,84.23
2018-02-08T16:12:13.302Z,94.07
2018-02-08T16:14:40.762Z,84.87
2018-02-08T16:17:08.226Z,88.90
2018-02-08T16:19:35.719Z,84.83
2018-02-08T16:22:03.182Z,80.33
2018-02-08T16:24:30.657Z,86.60
2018-02-08T16:26:58.881Z,86.57
2018-02-08T16:29:27.138Z,80.67
2018-02-08T16:31:54.593Z,84.33
2018-02-08T16:34:22.070Z,84.10
2018-02-08T16:36:49.530Z,84.80
2018-02-08T16:39:16.986Z,85.40
2018-02-08T16:41:44.477Z,88.93
2018-02-08T16:44:12.730Z,84.50
2018-02-08T16:46:40.210Z,87.30
2018-02-08T16:49:08.458Z,98.77
2018-02-08T16:51:35.942Z,90.60
2018-02-08T16:54:04.530Z,81.33
2018-02-08T16:56:32.015Z,93.20
2018-02-08T16:58:59.489Z,96.80
2018-02-08T17:01:26.978Z,88.00
2018-02-08T17:03:54.440Z,98.00
2018-02-08T17:06:21.908Z,91.57
2018-02-08T17:08:50.173Z,96.40
2018-02-08T17:11:17.666Z,97.30
2018-02-08T17:13:45.158Z,91.97
2018-02-08T17:16:12.625Z,92.63
2018-02-08T17:18:40.098Z,98.83
2018-02-08T17:21:07.562Z,98.23
2018-02-08T17:23:35.042Z,102.77
2018-02-08T17:26:03.261Z,93.43
2018-02-08T17:28:30.742Z,100.20
2018-02-08T17:30:58.201Z,95.60
2018-02-08T17:33:25.685Z,97.60
2018-02-08T17:35:54.542Z,108.97
2018-02-08T17:38:22.004Z,96.13
2018-02-08T17:40:49.467Z,110.77
2018-02-08T17:43:16.972Z,106.17
2018-02-08T17:45:44.435Z,105.20
2018-02-08T17:48:11.967Z,103.00
2018-02-08T17:50:39.409Z,101.30
2018-02-08T17:53:07.651Z,107.20
2018-02-08T17:55:35.146Z,111.53
2018-02-08T17:58:03.382Z,103.37
2018-02-08T18:00:30.849Z,98.30
2018-02-08T18:02:58.342Z,107.77
2018-02-08T18:05:26.604Z,103.53
2018-02-08T18:07:54.896Z,100.47
2018-02-08T18:10:23.125Z,105.63
2018-02-08T18:12:50.597Z,109.43
2018-02-08T18:15:18.087Z,105.13
2018-02-08T18:17:46.338Z,120.27
2018-02-08T18:20:13.818Z,127.70
2018-02-08T18:22:42.094Z,118.90
2018-02-08T18:25:10.339Z,111.60
2018-02-08T18:27:37.838Z,106.63
2018-02-08T18:30:05.304Z,118.97
2018-02-08T18:32:32.758Z,122.23
2018-02-08T18:35:00.258Z,118.90
2018-02-08T18:37:27.761Z,110.60
2018-02-08T18:39:55.994Z,113.73
2018-02-08T18:42:23.463Z,116.03
2018-02-08T18:44:50.946Z,109.53
2018-02-08T18:47:19.194Z,104.90
2018-02-08T18:49:46.693Z,113.03
2018-02-08T18:52:14.152Z,110.77
2018-02-08T18:54:41.633Z,108.50
2018-02-08T18:57:09.089Z,108.77
2018-02-08T18:59:36.593Z,107.47
2018-02-08T19:02:04.054Z,112.13
2018-02-08T19:04:31.546Z,114.27
2018-02-08T19:06:59.004Z,116.57
2018-02-08T19:09:26.518Z,115.10
2018-02-08T19:11:54.010Z,112.90
2018-02-08T19:14:21.487Z,109.80
2018-02-08T19:16:48.958Z,106.73
2018-02-08T19:19:16.450Z,110.73
2018-02-08T19:21:43.926Z,101.90
2018-02-08T19:24:11.406Z,116.90
2018-02-08T19:26:38.910Z,106.17
2018-02-08T19:29:06.401Z,113.37
2018-02-08T19:31:34.641Z,118.80
2018-02-08T19:34:02.130Z,110.43
2018-02-08T19:36:30.366Z,111.03
2018-02-08T19:38:57.846Z,106.13
2018-02-08T19:41:26.114Z,114.33
2018-02-08T19:43:53.605Z,108.03
2018-02-08T19:46:21.111Z,108.40
2018-02-08T19:48:48.579Z,114.97
2018-02-08T19:51:16.054Z,109.67
2018-02-08T19:53:43.558Z,114.07
2018-02-08T19:56:11.053Z,123.57
2018-02-08T19:58:38.525Z,114.73
2018-02-08T20:01:05.993Z,119.73
2018-02-08T20:03:34.256Z,123.67
2018-02-08T20:06:01.738Z,121.97
2018-02-08T20:08:29.221Z,120.83
2018-02-08T20:10:56.678Z,120.60
2018-02-08T20:13:24.133Z,118.40
2018-02-08T20:15:51.647Z,117.70
2018-02-08T20:18:19.115Z,120.57
2018-02-08T20:20:47.356Z,125.40
2018-02-08T20:23:14.844Z,118.23
2018-02-08T20:25:42.331Z,123.67
2018-02-08T20:28:09.808Z,116.50
2018-02-08T20:30:37.302Z,119.30
2018-02-08T20:33:04.803Z,131.33
2018-02-08T20:35:32.272Z,126.40
2018-02-08T20:37:59.734Z,126.10
2018-02-08T20:40:28.046Z,132.20
2018-02-08T20:43:01.085Z,120.97
2018-02-08T20:45:28.579Z,129.47
2018-02-08T20:47:56.073Z,129.53
2018-02-08T20:50:23.556Z,128.50
2018-02-08T20:52:51.018Z,124.30
2018-02-08T20:55:18.501Z,129.70
2018-02-08T20:57:46.741Z,133.67
2018-02-08T21:00:14.222Z,121.97
2018-02-08T21:02:42.490Z,132.37
2018-02-08T21:05:09.958Z,136.20
2018-02-08T21:07:37.446Z,129.50
2018-02-08T21:10:04.930Z,130.43
2018-02-08T21:12:32.586Z,137.97
2018-02-08T21:15:00.821Z,132.13
2018-02-08T21:17:28.295Z,122.67
2018-02-08T21:19:55.875Z,132.67
2018-02-08T21:22:23.344Z,134.13
2018-02-08T21:24:50.803Z,124.00
2018-02-08T21:27:18.285Z,132.53
2018-02-08T21:29:45.794Z,125.10
2018-02-08T21:32:14.161Z,134.33
2018-02-08T21:34:41.639Z,132.47
2018-02-08T21:37:09.134Z,134.43
2018-02-08T21:39:36.596Z,131.10
2018-02-08T21:42:04.070Z,135.73
2018-02-08T21:44:32.301Z,129.40
2018-02-08T21:46:59.785Z,139.00
2018-02-08T21:49:27.258Z,131.23
2018-02-08T21:51:54.766Z,130.40
2018-02-08T21:54:22.238Z,136.27
2018-02-08T21:56:49.690Z,130.73
2018-02-08T21:59:17.174Z,127.57
2018-02-08T22:01:44.659Z,141.53
2018-02-08T22:04:12.122Z,136.13
2018-02-08T22:06:39.610Z,128.30
2018-02-08T22:09:07.079Z,136.37
2018-02-08T22:11:34.562Z,138.10
2018-02-08T22:14:02.044Z,131.90
2018-02-08T22:16:29.534Z,130.13
2018-02-08T22:18:57.795Z,130.97
2018-02-08T22:21:26.126Z,132.33
2018-02-08T22:23:53.615Z,126.50
2018-02-08T22:26:21.102Z,139.00
2018-02-08T22:28:49.338Z,128.60
2018-02-08T22:31:16.823Z,134.93
2018-02-08T22:33:44.308Z,130.07
2018-02-08T22:36:11.797Z,132.70
2018-02-08T22:38:39.258Z,132.53
2018-02-08T22:41:08.117Z,128.30
2018-02-08T22:43:35.601Z,132.13
2018-02-08T22:46:03.081Z,138.13
2018-02-08T22:48:30.544Z,128.60
2018-02-08T22:50:58.074Z,134.67
2018-02-08T22:53:25.533Z,125.43
2018-02-08T22:55:52.996Z,123.80
2018-02-08T22:58:20.478Z,128.30
2018-02-08T23:00:47.941Z,130.00
2018-02-08T23:03:15.428Z,124.10
2018-02-08T23:05:42.899Z,124.67
2018-02-08T23:08:10.382Z,134.83
2018-02-08T23:10:38.634Z,133.70
2018-02-08T23:13:06.118Z,135.23
2018-02-08T23:15:33.574Z,129.40
2018-02-08T23:18:01.058Z,126.70
2018-02-08T23:20:30.430Z,121.13
2018-02-08T23:22:57.890Z,137.73
2018-02-08T23:25:25.406Z,128.47
2018-02-08T23:27:52.873Z,128.17
2018-02-08T23:30:20.338Z,126.57
2018-02-08T23:32:47.826Z,128.47
2018-02-08T23:35:15.329Z,125.73
2018-02-08T23:37:42.792Z,131.47
2018-02-08T23:40:10.253Z,133.87
2018-02-08T23:42:37.749Z,133.63
2018-02-08T23:45:05.203Z,128.07
2018-02-08T23:47:32.690Z,141.43
2018-02-08T23:50:00.145Z,129.27
2018-02-08T23:52:27.646Z,127.83
2018-02-08T23:54:55.110Z,125.53
2018-02-08T23:57:22.607Z,129.97
2018-02-08T23:59:50.085Z,140.77
